Time;durP1;ratioP1;P1;durP2;ratioP2;P2;SDS_P1;SDS_P2;PMS_P1;PMS_P2;Temp;Humidity;BMP_temperature;BMP_pressure;BME280_temperature;BME280_humidity;BME280_pressure;Samples;Min_cycle;Max_cycle;Signal;HPM_P1;HPM_P2
2022/09/20 00:00:45;;;;;;;4.32;1.50;;;;;;;;;;4788580;29;20515;-71
2022/09/20 00:03:12;;;;;;;2.22;1.70;;;;;;;;;;4789264;29;20058;-71
2022/09/20 00:05:39;;;;;;;2.80;1.73;;;;;;;;;;4789092;29;20050;-71
2022/09/20 00:08:06;;;;;;;3.35;1.60;;;;;;;;;;4788914;29;20126;-71
2022/09/20 00:10:38;;;;;;;4.65;1.65;;;;;;;;;;4791998;29;20047;-71
2022/09/20 00:13:05;;;;;;;3.03;2.00;;;;;;;;;;4792020;29;20532;-71
2022/09/20 00:15:32;;;;;;;1.95;1.38;;;;;;;;;;4791511;29;20051;-71
2022/09/20 00:17:58;;;;;;;2.30;1.77;;;;;;;;;;4789635;30;20054;-71
2022/09/20 00:20:25;;;;;;;3.05;1.58;;;;;;;;;;4791642;29;20141;-71
2022/09/20 00:22:51;;;;;;;4.00;1.73;;;;;;;;;;4791473;29;20515;-71
2022/09/20 00:25:18;;;;;;;2.83;1.70;;;;;;;;;;4791883;29;20046;-71
2022/09/20 00:27:44;;;;;;;2.75;1.50;;;;;;;;;;4790575;29;20089;-71
2022/09/20 00:30:11;;;;;;;2.28;1.58;;;;;;;;;;4792182;30;20138;-71
2022/09/20 00:32:38;;;;;;;3.75;1.65;;;;;;;;;;4791971;29;20055;-71
2022/09/20 00:35:08;;;;;;;3.75;1.52;;;;;;;;;;4792122;29;20058;-71
2022/09/20 00:37:35;;;;;;;4.72;1.67;;;;;;;;;;4792000;30;20112;-71
2022/09/20 00:40:02;;;;;;;1.92;1.60;;;;;;;;;;4792245;29;20055;-71
2022/09/20 00:42:28;;;;;;;11.88;1.60;;;;;;;;;;4791479;29;20408;-71
2022/09/20 00:45:02;;;;;;;1.88;1.48;;;;;;;;;;4791694;29;20055;-71
2022/09/20 00:47:28;;;;;;;4.32;1.63;;;;;;;;;;4791318;30;20373;-71
2022/09/20 00:50:07;;;;;;;3.10;1.70;;;;;;;;;;4791616;30;20057;-71
2022/09/20 00:52:34;;;;;;;2.20;1.45;;;;;;;;;;4791920;29;20081;-71
2022/09/20 00:55:00;;;;;;;4.90;1.70;;;;;;;;;;4791788;30;20047;-71
2022/09/20 00:57:26;;;;;;;2.03;1.60;;;;;;;;;;4791432;29;20191;-71
2022/09/20 00:59:53;;;;;;;2.33;1.40;;;;;;;;;;4791748;29;20058;-71
2022/09/20 01:02:22;;;;;;;3.75;1.85;;;;;;;;;;4791196;29;20194;-71
2022/09/20 01:04:49;;;;;;;3.92;1.77;;;;;;;;;;4791593;30;20135;-71
2022/09/20 01:07:17;;;;;;;3.78;1.63;;;;;;;;;;4791105;30;20047;-71
2022/09/20 01:09:43;;;;;;;2.20;1.23;;;;;;;;;;4791267;30;20140;-71
2022/09/20 01:12:13;;;;;;;2.38;1.30;;;;;;;;;;4791389;30;20047;-71
2022/09/20 01:14:41;;;;;;;2.97;1.73;;;;;;;;;;4790926;30;20043;-71
2022/09/20 01:17:07;;;;;;;3.92;1.70;;;;;;;;;;4791132;29;20558;-71
2022/09/20 01:19:39;;;;;;;3.53;1.65;;;;;;;;;;4791283;29;20134;-71
2022/09/20 01:22:11;;;;;;;3.83;1.60;;;;;;;;;;4789906;29;20051;-71
2022/09/20 01:24:40;;;;;;;2.58;1.48;;;;;;;;;;4791039;30;20051;-71
2022/09/20 01:27:25;;;;;;;5.63;1.58;;;;;;;;;;4791021;29;20073;-71
2022/09/20 01:29:57;;;;;;;2.47;1.20;;;;;;;;;;4790907;30;20058;-71
2022/09/20 01:32:26;;;;;;;2.50;1.80;;;;;;;;;;4790917;30;20526;-71
2022/09/20 01:34:54;;;;;;;2.38;1.40;;;;;;;;;;4790866;29;20051;-71
2022/09/20 01:37:25;;;;;;;1.85;1.60;;;;;;;;;;4790411;30;20047;-71
2022/09/20 01:40:10;;;;;;;2.45;1.75;;;;;;;;;;4790692;30;20055;-71
2022/09/20 01:42:38;;;;;;;3.17;1.70;;;;;;;;;;4789198;30;20097;-71
2022/09/20 01:45:19;;;;;;;2.45;1.63;;;;;;;;;;4790353;30;20063;-71
2022/09/20 01:47:51;;;;;;;5.38;1.75;;;;;;;;;;4790732;29;20100;-71
2022/09/20 01:50:25;;;;;;;3.38;1.70;;;;;;;;;;4790263;30;20055;-71
2022/09/20 01:53:00;;;;;;;3.13;1.42;;;;;;;;;;4790630;30;20050;-71
2022/09/20 01:55:53;;;;;;;1.92;1.60;;;;;;;;;;4790613;30;20070;-71
2022/09/20 01:58:32;;;;;;;1.90;1.48;;;;;;;;;;4790981;29;20118;-71
2022/09/20 02:01:16;;;;;;;4.38;2.45;;;;;;;;;;4790258;29;20055;-71
2022/09/20 02:03:48;;;;;;;2.30;1.67;;;;;;;;;;4789887;30;20083;-71
2022/09/20 02:06:14;;;;;;;4.13;1.75;;;;;;;;;;4790265;30;20066;-71
2022/09/20 02:08:48;;;;;;;2.00;1.80;;;;;;;;;;4789826;30;20539;-71
2022/09/20 02:11:23;;;;;;;3.35;1.70;;;;;;;;;;4790217;30;20570;-71
2022/09/20 02:13:49;;;;;;;3.40;1.50;;;;;;;;;;4790191;29;20576;-71
2022/09/20 02:16:30;;;;;;;2.00;1.58;;;;;;;;;;4790080;30;20082;-71
2022/09/20 02:19:11;;;;;;;3.20;1.58;;;;;;;;;;4789565;29;20119;-71
2022/09/20 02:21:37;;;;;;;;;;;;;;;;;;4790366;30;20060;-71
2022/09/20 02:24:07;;;;;;;1.98;1.45;;;;;;;;;;4790026;30;20380;-71
2022/09/20 02:26:38;;;;;;;2.63;1.63;;;;;;;;;;4790175;30;20043;-71
2022/09/20 02:29:07;;;;;;;2.65;1.60;;;;;;;;;;4790267;29;20127;-71
2022/09/20 02:31:43;;;;;;;2.88;1.80;;;;;;;;;;4789972;30;20143;-71
2022/09/20 02:34:22;;;;;;;2.10;1.60;;;;;;;;;;4790197;29;20051;-71
2022/09/20 02:37:12;;;;;;;2.42;1.63;;;;;;;;;;4789935;29;20097;-71
2022/09/20 02:39:47;;;;;;;1.75;1.40;;;;;;;;;;4790013;29;20047;-71
2022/09/20 02:42:32;;;;;;;2.13;1.60;;;;;;;;;;4789836;30;20139;-71
2022/09/20 02:44:58;;;;;;;3.10;1.40;;;;;;;;;;4789560;30;20205;-71
2022/09/20 02:47:25;;;;;;;1.75;1.52;;;;;;;;;;4789420;30;20055;-71
2022/09/20 02:50:18;;;;;;;2.92;1.90;;;;;;;;;;4789544;30;20053;-71
2022/09/20 02:52:53;;;;;;;2.42;1.60;;;;;;;;;;4790607;29;20055;-71
2022/09/20 02:55:34;;;;;;;2.08;1.35;;;;;;;;;;4789566;30;20047;-71
2022/09/20 02:58:08;;;;;;;2.88;1.60;;;;;;;;;;4789874;29;20047;-71
2022/09/20 03:00:41;;;;;;;3.00;1.63;;;;;;;;;;4789393;29;20063;-71
2022/09/20 03:03:07;;;;;;;3.20;1.35;;;;;;;;;;4790028;30;20043;-71
2022/09/20 03:05:36;;;;;;;4.13;2.03;;;;;;;;;;4789328;30;20050;-71
2022/09/20 03:08:02;;;;;;;2.10;1.50;;;;;;;;;;4788994;30;20128;-71
2022/09/20 03:10:47;;;;;;;4.07;1.90;;;;;;;;;;4789573;30;20051;-71
2022/09/20 03:13:17;;;;;;;2.40;1.80;;;;;;;;;;4789656;30;20504;-71
2022/09/20 03:15:56;;;;;;;1.83;1.38;;;;;;;;;;4789591;30;20055;-71
2022/09/20 03:18:34;;;;;;;7.40;1.70;;;;;;;;;;4789547;30;20051;-71
2022/09/20 03:21:03;;;;;;;3.50;1.60;;;;;;;;;;4789180;30;20143;-71
2022/09/20 03:23:39;;;;;;;3.65;1.80;;;;;;;;;;4789216;30;20130;-71
2022/09/20 03:26:30;;;;;;;2.33;1.63;;;;;;;;;;4789603;30;20507;-71
2022/09/20 03:29:08;;;;;;;2.40;1.67;;;;;;;;;;4789610;29;20044;-71
2022/09/20 03:31:44;;;;;;;2.33;1.65;;;;;;;;;;4789345;30;20504;-71
2022/09/20 03:34:20;;;;;;;3.63;1.63;;;;;;;;;;4789195;30;20128;-71
2022/09/20 03:36:58;;;;;;;2.45;1.60;;;;;;;;;;4788924;30;20051;-71
2022/09/20 03:39:43;;;;;;;7.55;1.88;;;;;;;;;;4789731;30;20544;-71
2022/09/20 03:42:16;;;;;;;2.45;1.33;;;;;;;;;;4789232;30;20044;-71
2022/09/20 03:44:48;;;;;;;3.63;1.70;;;;;;;;;;4791156;29;20051;-71
2022/09/20 03:47:22;;;;;;;2.65;1.40;;;;;;;;;;4792972;30;20047;-71
2022/09/20 03:49:49;;;;;;;3.53;1.65;;;;;;;;;;4792591;30;20623;-71
2022/09/20 03:52:34;;;;;;;2.80;1.65;;;;;;;;;;4792455;30;20548;-71
2022/09/20 03:55:19;;;;;;;4.88;1.73;;;;;;;;;;4792896;30;20135;-71
2022/09/20 03:58:05;;;;;;;2.88;1.50;;;;;;;;;;4792775;30;20050;-71
2022/09/20 04:00:35;;;;;;;3.13;1.75;;;;;;;;;;4786561;29;20063;-71
2022/09/20 04:03:17;;;;;;;6.18;1.95;;;;;;;;;;4772923;30;20110;-71
2022/09/20 04:06:01;;;;;;;2.67;1.40;;;;;;;;;;4774606;30;20048;-71
2022/09/20 04:08:39;;;;;;;3.97;1.80;;;;;;;;;;4774397;30;20075;-71
2022/09/20 04:11:23;;;;;;;1.50;1.10;;;;;;;;;;4774613;30;20039;-71
2022/09/20 04:14:08;;;;;;;2.20;1.58;;;;;;;;;;4773794;30;20043;-71
2022/09/20 04:16:55;;;;;;;3.15;1.58;;;;;;;;;;4772136;30;20081;-71
2022/09/20 04:19:45;;;;;;;4.10;1.77;;;;;;;;;;4765858;30;20043;-71
2022/09/20 04:22:11;;;;;;;2.30;1.40;;;;;;;;;;4773096;30;20047;-71
2022/09/20 04:24:49;;;;;;;3.88;1.50;;;;;;;;;;4773812;30;20127;-71
2022/09/20 04:27:20;;;;;;;2.42;1.73;;;;;;;;;;4773933;30;20051;-71
2022/09/20 04:29:57;;;;;;;2.70;1.30;;;;;;;;;;4772908;30;20043;-70
2022/09/20 04:32:41;;;;;;;4.45;2.50;;;;;;;;;;4773986;30;20047;-70
2022/09/20 04:38:14;;;;;;;2.88;2.00;;;;;;;;;;4773521;30;20062;-71
2022/09/20 04:40:43;;;;;;;3.53;1.90;;;;;;;;;;4773874;30;20055;-72
2022/09/20 04:43:16;;;;;;;2.33;1.52;;;;;;;;;;4773597;30;20093;-71
2022/09/20 04:46:03;;;;;;;2.35;1.70;;;;;;;;;;4774213;30;20484;-71
2022/09/20 04:48:48;;;;;;;5.28;2.40;;;;;;;;;;4774141;30;20055;-71
2022/09/20 04:51:29;;;;;;;4.40;2.17;;;;;;;;;;4773712;30;20059;-71
2022/09/20 04:54:02;;;;;;;3.55;1.90;;;;;;;;;;4773585;30;20484;-71
2022/09/20 04:56:39;;;;;;;2.33;1.52;;;;;;;;;;4772995;30;20054;-73
2022/09/20 04:59:06;;;;;;;4.22;1.88;;;;;;;;;;4773852;30;20043;-73
2022/09/20 05:01:32;;;;;;;114.70;67.28;;;;;;;;;;4773385;30;20118;-73
2022/09/20 05:04:01;;;;;;;69.70;43.83;;;;;;;;;;4773803;30;20040;-72
2022/09/20 05:06:47;;;;;;;4.38;3.25;;;;;;;;;;4773541;30;20481;-73
2022/09/20 05:09:45;;;;;;;5.32;1.88;;;;;;;;;;4773726;30;20044;-72
2022/09/20 05:12:11;;;;;;;2.97;2.20;;;;;;;;;;4790090;29;20051;-73
2022/09/20 05:14:58;;;;;;;2.65;2.03;;;;;;;;;;4773062;30;20051;-73
2022/09/20 05:17:29;;;;;;;2.70;1.77;;;;;;;;;;4780801;29;20056;-73
2022/09/20 05:19:55;;;;;;;;;;;;;;;;;;4771031;30;20048;-73
2022/09/20 05:22:24;;;;;;;2.90;1.85;;;;;;;;;;4772626;30;19921;-73
2022/09/20 05:25:09;;;;;;;4.97;1.83;;;;;;;;;;4772825;30;20048;-72
2022/09/20 05:28:10;;;;;;;4.90;1.67;;;;;;;;;;4771541;30;20054;-73
2022/09/20 05:30:40;;;;;;;2.95;1.80;;;;;;;;;;4787143;30;20139;-72
2022/09/20 05:33:12;;;;;;;2.28;1.70;;;;;;;;;;4771852;30;20087;-72
2022/09/20 05:35:53;;;;;;;3.75;1.60;;;;;;;;;;4772919;30;20085;-72
2022/09/20 05:38:19;;;;;;;;;;;;;;;;;;4773641;30;20131;-71
2022/09/20 05:41:07;;;;;;;4.10;1.90;;;;;;;;;;4773449;30;20020;-71
2022/09/20 05:43:35;;;;;;;3.00;2.13;;;;;;;;;;4772927;30;20158;-71
2022/09/20 05:46:01;;;;;;;3.97;1.58;;;;;;;;;;4772814;30;20150;-71
2022/09/20 05:48:27;;;;;;;4.15;1.80;;;;;;;;;;4773111;30;20051;-71
2022/09/20 05:51:02;;;;;;;7.63;3.05;;;;;;;;;;4772918;30;20087;-71
2022/09/20 05:53:47;;;;;;;20.30;11.85;;;;;;;;;;4772613;30;20549;-71
2022/09/20 05:56:13;;;;;;;4.07;2.45;;;;;;;;;;4771976;30;20105;-71
2022/09/20 05:58:56;;;;;;;4.57;2.22;;;;;;;;;;4772219;30;20052;-71
2022/09/20 06:01:26;;;;;;;4.88;1.67;;;;;;;;;;4770167;30;20085;-72
2022/09/20 06:03:55;;;;;;;3.28;1.63;;;;;;;;;;4772026;30;20112;-72
2022/09/20 06:06:30;;;;;;;5.25;1.85;;;;;;;;;;4772327;30;20103;-73
2022/09/20 06:09:02;;;;;;;6.63;2.17;;;;;;;;;;4772276;30;20047;-73
2022/09/20 06:11:47;;;;;;;2.03;1.40;;;;;;;;;;4771947;30;20047;-73
2022/09/20 06:14:16;;;;;;;3.30;2.20;;;;;;;;;;4772172;30;20043;-73
2022/09/20 06:16:46;;;;;;;6.63;1.92;;;;;;;;;;4772294;30;20055;-72
2022/09/20 06:19:14;;;;;;;;;;;;;;;;;;4772900;30;20130;-73
2022/09/20 06:21:40;;;;;;;4.43;2.70;;;;;;;;;;4772479;30;19922;-73
2022/09/20 06:24:19;;;;;;;5.93;2.00;;;;;;;;;;4772129;30;20047;-72
2022/09/20 06:26:45;;;;;;;4.70;2.60;;;;;;;;;;4772572;30;20108;-73
2022/09/20 06:29:12;;;;;;;4.15;2.38;;;;;;;;;;4772508;30;20048;-73
2022/09/20 06:31:38;;;;;;;4.63;2.05;;;;;;;;;;4772513;30;20059;-73
2022/09/20 06:34:10;;;;;;;4.90;2.20;;;;;;;;;;4771947;30;20429;-73
2022/09/20 06:42:08;;;;;;;3.40;2.15;;;;;;;;;;4771630;30;20153;-73
2022/09/20 06:44:40;;;;;;;5.97;2.30;;;;;;;;;;4771992;30;20180;-73
2022/09/20 06:47:09;;;;;;;5.15;2.65;;;;;;;;;;4771729;30;20047;-73
2022/09/20 06:49:36;;;;;;;3.45;1.95;;;;;;;;;;4772229;30;20567;-72
2022/09/20 06:52:06;;;;;;;4.82;2.38;;;;;;;;;;4771975;30;20079;-72
2022/09/20 06:54:32;;;;;;;5.40;2.20;;;;;;;;;;4771644;30;20396;-72
2022/09/20 06:57:01;;;;;;;6.07;1.90;;;;;;;;;;4771915;30;20051;-73
2022/09/20 06:59:28;;;;;;;3.47;1.70;;;;;;;;;;4771894;30;20047;-73
2022/09/20 07:01:54;;;;;;;5.03;1.92;;;;;;;;;;4771941;30;20063;-73
2022/09/20 07:04:25;;;;;;;4.10;2.30;;;;;;;;;;4771864;30;20048;-73
2022/09/20 07:06:52;;;;;;;2.28;1.85;;;;;;;;;;4771548;30;20047;-72
2022/09/20 07:09:19;;;;;;;4.95;2.63;;;;;;;;;;4771752;30;20092;-72
2022/09/20 07:11:45;;;;;;;3.38;2.08;;;;;;;;;;4771956;30;20094;-73
2022/09/20 07:14:11;;;;;;;2.58;1.60;;;;;;;;;;4771751;30;20048;-72
2022/09/20 07:16:38;;;;;;;4.65;1.70;;;;;;;;;;4771427;30;20134;-72
2022/09/20 07:19:05;;;;;;;3.72;1.60;;;;;;;;;;4771301;30;20040;-72
2022/09/20 07:21:31;;;;;;;4.70;1.40;;;;;;;;;;4770944;30;20056;-72
2022/09/20 07:23:57;;;;;;;4.43;1.40;;;;;;;;;;4771458;30;20040;-72
2022/09/20 07:26:29;;;;;;;5.53;1.63;;;;;;;;;;4771614;30;20070;-72
2022/09/20 07:28:56;;;;;;;4.38;1.20;;;;;;;;;;4771575;30;20043;-72
2022/09/20 07:31:23;;;;;;;4.78;1.80;;;;;;;;;;4771545;30;20063;-72
2022/09/20 07:33:49;;;;;;;4.07;1.50;;;;;;;;;;4771646;30;20481;-72
2022/09/20 07:36:16;;;;;;;2.95;1.15;;;;;;;;;;4771289;30;20083;-72
2022/09/20 07:38:42;;;;;;;2.33;1.20;;;;;;;;;;4771965;30;20047;-72
2022/09/20 07:41:09;;;;;;;2.17;0.95;;;;;;;;;;4771528;30;20059;-72
2022/09/20 07:43:35;;;;;;;3.28;1.20;;;;;;;;;;4771788;30;20040;-73
2022/09/20 07:46:01;;;;;;;4.80;1.33;;;;;;;;;;4771156;30;20063;-72
2022/09/20 07:48:31;;;;;;;3.25;1.17;;;;;;;;;;4771232;30;20112;-73
2022/09/20 07:50:58;;;;;;;2.45;1.60;;;;;;;;;;4771165;30;20052;-72
2022/09/20 07:53:25;;;;;;;6.03;1.45;;;;;;;;;;4770863;30;20054;-72
2022/09/20 07:55:57;;;;;;;2.03;1.23;;;;;;;;;;4770915;30;20055;-72
2022/09/20 07:58:23;;;;;;;1.67;1.40;;;;;;;;;;4771086;30;20040;-73
2022/09/20 08:00:51;;;;;;;2.35;1.40;;;;;;;;;;4771403;30;20055;-73
2022/09/20 08:03:17;;;;;;;4.63;1.48;;;;;;;;;;4771127;30;20047;-73
2022/09/20 08:05:44;;;;;;;3.97;1.92;;;;;;;;;;4771223;30;20051;-72
2022/09/20 08:08:10;;;;;;;3.15;1.27;;;;;;;;;;4770899;30;20105;-73
2022/09/20 08:10:39;;;;;;;3.40;1.27;;;;;;;;;;4771210;30;20051;-73
2022/09/20 08:13:05;;;;;;;3.45;1.70;;;;;;;;;;4771621;30;20081;-72
2022/09/20 08:15:32;;;;;;;3.97;1.33;;;;;;;;;;4771042;30;20084;-73
2022/09/20 08:17:58;;;;;;;2.95;1.27;;;;;;;;;;4771259;30;20055;-72
2022/09/20 08:20:24;;;;;;;2.30;1.08;;;;;;;;;;4771066;30;20051;-73
2022/09/20 08:22:50;;;;;;;4.57;1.48;;;;;;;;;;4770544;30;20043;-73
2022/09/20 08:25:16;;;;;;;2.47;1.33;;;;;;;;;;4770657;30;20055;-73
2022/09/20 08:27:42;;;;;;;3.63;1.40;;;;;;;;;;4771155;30;20131;-73
2022/09/20 08:30:10;;;;;;;7.20;1.52;;;;;;;;;;4771986;30;20051;-73
2022/09/20 08:32:40;;;;;;;3.42;1.25;;;;;;;;;;4774575;30;20070;-72
2022/09/20 08:35:06;;;;;;;4.63;1.63;;;;;;;;;;4773729;30;20050;-72
2022/09/20 08:37:32;;;;;;;1.45;1.10;;;;;;;;;;4774074;30;20504;-73
2022/09/20 08:39:58;;;;;;;4.72;1.73;;;;;;;;;;4773585;30;20052;-73
2022/09/20 08:42:29;;;;;;;3.85;1.02;;;;;;;;;;4773942;30;20051;-72
2022/09/20 08:44:59;;;;;;;1.70;1.13;;;;;;;;;;4773989;30;20067;-72
2022/09/20 08:47:27;;;;;;;1.13;1.02;;;;;;;;;;4773552;30;20042;-73
2022/09/20 08:49:54;;;;;;;2.40;1.20;;;;;;;;;;4773777;30;20047;-73
2022/09/20 08:52:29;;;;;;;2.22;0.90;;;;;;;;;;4773294;30;20123;-73
2022/09/20 08:54:58;;;;;;;3.50;1.13;;;;;;;;;;4774754;30;20122;-73
2022/09/20 08:57:27;;;;;;;2.72;1.15;;;;;;;;;;4773810;30;20105;-73
2022/09/20 08:59:53;;;;;;;2.30;0.95;;;;;;;;;;4773781;30;20442;-73
2022/09/20 09:02:21;;;;;;;1.58;1.20;;;;;;;;;;4773913;30;20058;-73
2022/09/20 09:04:50;;;;;;;4.78;1.60;;;;;;;;;;4773796;30;20075;-73
2022/09/20 09:07:21;;;;;;;2.28;1.10;;;;;;;;;;4773631;30;20493;-73
2022/09/20 09:09:48;;;;;;;1.20;1.10;;;;;;;;;;4773502;30;20051;-73
2022/09/20 09:12:28;;;;;;;1.33;1.00;;;;;;;;;;4773771;30;20512;-73
2022/09/20 09:14:58;;;;;;;1.92;1.10;;;;;;;;;;4773717;30;20105;-73
2022/09/20 09:17:25;;;;;;;2.42;1.17;;;;;;;;;;4773310;30;20044;-72
2022/09/20 09:19:53;;;;;;;1.73;1.10;;;;;;;;;;4773472;30;20047;-73
2022/09/20 09:22:22;;;;;;;1.52;1.02;;;;;;;;;;4773067;30;20055;-73
2022/09/20 09:25:06;;;;;;;1.35;0.80;;;;;;;;;;4774009;30;20074;-73
2022/09/20 09:27:33;;;;;;;2.30;1.40;;;;;;;;;;4773741;30;20526;-73
2022/09/20 09:30:00;;;;;;;7.15;2.08;;;;;;;;;;4773101;30;20055;-73
2022/09/20 09:32:30;;;;;;;3.35;1.25;;;;;;;;;;4773390;30;20083;-72
2022/09/20 09:34:56;;;;;;;10.18;3.38;;;;;;;;;;4773226;30;20040;-73
2022/09/20 09:37:27;;;;;;;4.68;1.60;;;;;;;;;;4773091;30;20525;-73
2022/09/20 09:39:53;;;;;;;;;;;;;;;;;;4773565;30;20046;-72
2022/09/20 09:42:23;;;;;;;2.17;1.48;;;;;;;;;;4772652;30;19914;-72
2022/09/20 09:44:49;;;;;;;4.13;1.63;;;;;;;;;;4772875;30;20043;-73
2022/09/20 09:47:26;;;;;;;4.53;1.40;;;;;;;;;;4772595;30;20043;-72
2022/09/20 09:49:59;;;;;;;2.30;1.27;;;;;;;;;;4772931;30;20105;-72
2022/09/20 09:52:31;;;;;;;3.80;1.30;;;;;;;;;;4772373;30;20048;-72
2022/09/20 09:54:58;;;;;;;1.60;1.50;;;;;;;;;;4773111;30;20056;-72
2022/09/20 09:57:44;;;;;;;2.13;1.10;;;;;;;;;;4771388;30;20400;-72
2022/09/20 10:00:13;;;;;;;1.88;1.00;;;;;;;;;;4772515;30;20058;-72
2022/09/20 10:02:59;;;;;;;1.52;1.00;;;;;;;;;;4772724;30;20079;-72
2022/09/20 10:05:34;;;;;;;2.75;1.10;;;;;;;;;;4772393;30;20043;-72
2022/09/20 10:08:19;;;;;;;4.25;0.90;;;;;;;;;;4772432;30;20039;-72
2022/09/20 10:10:45;;;;;;;1.83;1.02;;;;;;;;;;4772678;30;20052;-73
2022/09/20 10:13:23;;;;;;;2.78;1.40;;;;;;;;;;4772523;30;20047;-72
2022/09/20 10:16:01;;;;;;;2.30;0.90;;;;;;;;;;4772329;30;20051;-73
2022/09/20 10:18:33;;;;;;;2.45;1.10;;;;;;;;;;4773002;30;20067;-73
2022/09/20 10:21:14;;;;;;;2.67;1.23;;;;;;;;;;4772135;30;20055;-72
2022/09/20 10:23:47;;;;;;;1.92;0.95;;;;;;;;;;4772049;30;20497;-71
2022/09/20 10:26:31;;;;;;;1.80;1.15;;;;;;;;;;4772109;30;20051;-72
2022/09/20 10:29:14;;;;;;;1.50;1.10;;;;;;;;;;4766760;30;20043;-72
2022/09/20 10:31:56;;;;;;;2.20;1.70;;;;;;;;;;4769815;30;20051;-72
2022/09/20 10:34:37;;;;;;;1.08;0.93;;;;;;;;;;4770573;30;20049;-73
2022/09/20 10:37:06;;;;;;;2.38;1.10;;;;;;;;;;4770484;30;20048;-72
2022/09/20 10:39:37;;;;;;;3.22;1.10;;;;;;;;;;4771250;30;20054;-72
2022/09/20 10:44:56;;;;;;;1.88;1.05;;;;;;;;;;4770846;30;20111;-72
2022/09/20 10:47:27;;;;;;;2.17;1.00;;;;;;;;;;4770878;30;20075;-74
2022/09/20 10:50:03;;;;;;;3.83;1.40;;;;;;;;;;4771269;30;20047;-73
2022/09/20 10:52:45;;;;;;;2.88;1.40;;;;;;;;;;4771216;30;20075;-73
2022/09/20 10:55:14;;;;;;;3.50;0.90;;;;;;;;;;4770837;30;20047;-72
2022/09/20 10:57:44;;;;;;;2.45;1.15;;;;;;;;;;4771383;30;20056;-72
2022/09/20 11:00:22;;;;;;;1.55;1.08;;;;;;;;;;4770548;30;20056;-72
2022/09/20 11:03:02;;;;;;;3.75;1.23;;;;;;;;;;4770667;30;20052;-72
2022/09/20 11:05:46;;;;;;;3.63;1.23;;;;;;;;;;4770767;30;20059;-73
2022/09/20 11:08:17;;;;;;;2.75;0.95;;;;;;;;;;4769685;30;20056;-74
2022/09/20 11:10:49;;;;;;;2.20;1.25;;;;;;;;;;4770135;30;20086;-72
2022/09/20 11:13:29;;;;;;;2.00;0.80;;;;;;;;;;4771404;30;20083;-73
2022/09/20 11:16:11;;;;;;;2.43;0.97;;;;;;;;;;4784887;30;20071;-73
2022/09/20 11:18:37;;;;;;;1.48;1.02;;;;;;;;;;4770509;30;20040;-73
2022/09/20 11:21:10;;;;;;;1.80;0.90;;;;;;;;;;4771077;30;20063;-73
2022/09/20 11:23:49;;;;;;;2.22;1.00;;;;;;;;;;4771093;30;20078;-73
2022/09/20 11:26:31;;;;;;;2.30;1.20;;;;;;;;;;4770905;30;20572;-72
2022/09/20 11:29:02;;;;;;;2.10;1.20;;;;;;;;;;4771206;30;20059;-72
2022/09/20 11:31:36;;;;;;;1.05;0.80;;;;;;;;;;4771093;30;20054;-71
2022/09/20 11:34:12;;;;;;;2.28;1.00;;;;;;;;;;4772204;30;20056;-72
2022/09/20 11:37:04;;;;;;;2.38;0.90;;;;;;;;;;4771110;30;20077;-72
2022/09/20 11:39:45;;;;;;;1.00;0.70;;;;;;;;;;4771321;30;20051;-72
2022/09/20 11:42:15;;;;;;;1.60;0.85;;;;;;;;;;4771307;30;20391;-71
2022/09/20 11:44:41;;;;;;;1.98;0.80;;;;;;;;;;4770659;30;20048;-71
2022/09/20 11:47:19;;;;;;;3.70;0.90;;;;;;;;;;4771070;30;20577;-69
2022/09/20 11:49:54;;;;;;;1.38;0.95;;;;;;;;;;4771234;30;20076;-70
2022/09/20 11:52:46;;;;;;;1.65;0.90;;;;;;;;;;4769645;30;20105;-70
2022/09/20 11:55:24;;;;;;;1.00;0.90;;;;;;;;;;4769686;30;20128;-70
2022/09/20 11:58:07;;;;;;;1.05;0.80;;;;;;;;;;4770820;30;20213;-70
2022/09/20 12:00:34;;;;;;;1.95;0.70;;;;;;;;;;4770436;30;20048;-70
2022/09/20 12:03:02;;;;;;;1.00;0.77;;;;;;;;;;4771428;30;20523;-70
2022/09/20 12:05:34;;;;;;;1.25;0.90;;;;;;;;;;4772542;30;20039;-70
2022/09/20 12:08:02;;;;;;;1.20;0.73;;;;;;;;;;4774135;30;20051;-70
2022/09/20 12:10:31;;;;;;;0.88;0.70;;;;;;;;;;4774423;30;20134;-70
2022/09/20 12:12:59;;;;;;;4.30;0.73;;;;;;;;;;4774700;30;20107;-70
2022/09/20 12:15:27;;;;;;;3.60;0.80;;;;;;;;;;4774022;30;20483;-70
2022/09/20 12:17:56;;;;;;;1.95;0.90;;;;;;;;;;4773078;30;20467;-70
2022/09/20 12:20:35;;;;;;;2.50;1.08;;;;;;;;;;4773849;30;20055;-70
2022/09/20 12:23:20;;;;;;;2.10;1.30;;;;;;;;;;4774210;30;20087;-70
2022/09/20 12:25:59;;;;;;;1.60;1.20;;;;;;;;;;4773883;30;20047;-70
2022/09/20 12:28:39;;;;;;;3.70;1.13;;;;;;;;;;4788372;30;20566;-70
2022/09/20 12:31:21;;;;;;;2.92;0.98;;;;;;;;;;4773817;30;20063;-70
2022/09/20 12:34:14;;;;;;;1.48;0.70;;;;;;;;;;4774546;30;20118;-70
2022/09/20 12:36:43;;;;;;;2.65;0.90;;;;;;;;;;4774095;30;20109;-70
2022/09/20 12:39:10;;;;;;;0.85;0.70;;;;;;;;;;4773993;30;20047;-69
2022/09/20 12:41:50;;;;;;;2.05;0.77;;;;;;;;;;4774137;30;20059;-69
2022/09/20 12:44:29;;;;;;;1.98;1.00;;;;;;;;;;4773645;30;20135;-70
2022/09/20 12:46:58;;;;;;;0.90;0.90;;;;;;;;;;4773355;30;20064;-69
2022/09/20 12:55:06;;;;;;;2.88;1.20;;;;;;;;;;4773200;30;20462;-70
2022/09/20 12:57:34;;;;;;;0.93;0.88;;;;;;;;;;4773357;30;20078;-70
2022/09/20 13:00:01;;;;;;;1.02;0.93;;;;;;;;;;4773246;30;20040;-70
2022/09/20 13:02:56;;;;;;;1.08;0.80;;;;;;;;;;4773993;30;20044;-70
2022/09/20 13:05:32;;;;;;;1.00;0.90;;;;;;;;;;4773861;30;20051;-70
2022/09/20 13:08:02;;;;;;;1.85;0.73;;;;;;;;;;4773286;30;20047;-70
2022/09/20 13:10:30;;;;;;;1.15;0.82;;;;;;;;;;4773265;30;20047;-70
2022/09/20 13:13:01;;;;;;;2.20;0.80;;;;;;;;;;4773470;30;20047;-70
2022/09/20 13:15:28;;;;;;;1.17;1.00;;;;;;;;;;4773097;30;20079;-69
2022/09/20 13:17:55;;;;;;;1.95;0.80;;;;;;;;;;4772396;30;20052;-69
2022/09/20 13:20:24;;;;;;;2.13;0.98;;;;;;;;;;4772963;30;20616;-69
2022/09/20 13:22:52;;;;;;;1.30;0.88;;;;;;;;;;4772942;30;20059;-69
2022/09/20 13:25:22;;;;;;;1.98;0.80;;;;;;;;;;4772933;30;20209;-69
2022/09/20 13:27:56;;;;;;;0.93;0.90;;;;;;;;;;4773546;30;20048;-69
2022/09/20 13:30:24;;;;;;;1.05;0.93;;;;;;;;;;4773643;30;20052;-69
2022/09/20 13:32:50;;;;;;;1.58;0.85;;;;;;;;;;4773876;30;20131;-70
2022/09/20 13:35:23;;;;;;;2.70;1.02;;;;;;;;;;4773059;30;20051;-69
2022/09/20 13:37:49;;;;;;;1.17;0.88;;;;;;;;;;4773136;30;20055;-69
2022/09/20 13:40:32;;;;;;;0.85;0.73;;;;;;;;;;4772869;30;20044;-69
2022/09/20 13:42:59;;;;;;;1.40;0.70;;;;;;;;;;4773439;30;20051;-69
2022/09/20 13:45:26;;;;;;;4.35;1.00;;;;;;;;;;4772883;30;20117;-70
2022/09/20 13:47:56;;;;;;;1.63;0.93;;;;;;;;;;4772841;30;20488;-69
2022/09/20 13:50:22;;;;;;;;;;;;;;;;;;4773463;30;20056;-69
2022/09/20 13:52:53;;;;;;;3.30;1.20;;;;;;;;;;4773143;30;19970;-69
2022/09/20 13:55:23;;;;;;;2.13;0.70;;;;;;;;;;4773184;30;20484;-69
2022/09/20 13:57:49;;;;;;;1.10;0.77;;;;;;;;;;4773496;30;20040;-69
2022/09/20 14:00:16;;;;;;;1.02;0.60;;;;;;;;;;4772831;30;20052;-69
2022/09/20 14:02:42;;;;;;;4.75;0.90;;;;;;;;;;4772980;30;20113;-69
2022/09/20 14:05:14;;;;;;;1.40;0.90;;;;;;;;;;4773259;30;20429;-69
2022/09/20 14:07:43;;;;;;;3.55;0.75;;;;;;;;;;4772547;30;20056;-70
2022/09/20 14:10:32;;;;;;;0.85;0.70;;;;;;;;;;4772741;30;20136;-70
2022/09/20 14:13:01;;;;;;;2.30;0.80;;;;;;;;;;4773233;30;20493;-70
2022/09/20 14:15:30;;;;;;;1.20;0.90;;;;;;;;;;4772539;30;20068;-69
2022/09/20 14:17:56;;;;;;;1.05;0.70;;;;;;;;;;4772689;30;20044;-70
2022/09/20 14:20:23;;;;;;;0.85;0.80;;;;;;;;;;4772483;30;20144;-69
2022/09/20 14:22:49;;;;;;;1.00;0.77;;;;;;;;;;4772595;30;20055;-69
2022/09/20 14:25:16;;;;;;;3.17;0.90;;;;;;;;;;4772487;30;20057;-70
2022/09/20 14:27:42;;;;;;;4.03;0.90;;;;;;;;;;4772147;30;20048;-70
2022/09/20 14:30:31;;;;;;;0.80;0.80;;;;;;;;;;4772119;30;20075;-70
2022/09/20 14:32:58;;;;;;;1.40;1.02;;;;;;;;;;4772635;30;20082;-69
2022/09/20 14:35:25;;;;;;;1.20;0.77;;;;;;;;;;4772283;30;20048;-69
2022/09/20 14:37:53;;;;;;;1.15;0.88;;;;;;;;;;4772069;30;20035;-70
2022/09/20 14:40:23;;;;;;;1.05;0.90;;;;;;;;;;4771897;30;20066;-70
2022/09/20 14:42:57;;;;;;;1.42;0.98;;;;;;;;;;4772569;30;20048;-70
2022/09/20 14:45:30;;;;;;;1.20;0.80;;;;;;;;;;4772085;30;20068;-70
2022/09/20 14:47:59;;;;;;;4.20;0.93;;;;;;;;;;4771937;30;20035;-69
2022/09/20 14:50:30;;;;;;;1.17;0.82;;;;;;;;;;4769663;30;20060;-69
2022/09/20 14:53:02;;;;;;;0.70;0.70;;;;;;;;;;4769195;30;20539;-69
2022/09/20 14:55:30;;;;;;;2.10;0.75;;;;;;;;;;4770567;30;20054;-69
2022/09/20 14:57:57;;;;;;;3.22;1.10;;;;;;;;;;4771176;30;20046;-69
2022/09/20 15:00:24;;;;;;;1.00;0.80;;;;;;;;;;4770381;30;20431;-70
2022/09/20 15:02:50;;;;;;;1.45;0.85;;;;;;;;;;4771895;30;20055;-69
2022/09/20 15:05:26;;;;;;;1.05;0.70;;;;;;;;;;4769626;30;20076;-72
2022/09/20 15:07:57;;;;;;;2.03;0.95;;;;;;;;;;4770728;30;20056;-72
2022/09/20 15:10:24;;;;;;;1.23;0.85;;;;;;;;;;4770135;30;20124;-71
2022/09/20 15:12:50;;;;;;;1.77;0.90;;;;;;;;;;4770371;30;20052;-71
2022/09/20 15:15:17;;;;;;;0.80;0.63;;;;;;;;;;4771277;30;20126;-71
2022/09/20 15:17:44;;;;;;;1.70;1.00;;;;;;;;;;4771180;30;20071;-71
2022/09/20 15:20:15;;;;;;;1.23;0.90;;;;;;;;;;4760033;30;20409;-72
2022/09/20 15:22:41;;;;;;;;;;;;;;;;;;4751581;30;20263;-72
2022/09/20 15:25:12;;;;;;;3.83;0.90;;;;;;;;;;4751675;30;19914;-72
2022/09/20 15:27:38;;;;;;;;;;;;;;;;;;4752748;30;20189;-72
2022/09/20 15:30:05;;;;;;;2.42;0.77;;;;;;;;;;4752921;30;19987;-72
2022/09/20 15:32:31;;;;;;;2.97;0.90;;;;;;;;;;4752889;30;20052;-72